Ardenhurst, Minnesota
Current Conditions -  °F | °C
As of 1:53 PM on Saturday 20 Dec 2014 (Local Time) from KFOZ Reporting Station
Unknown Precip Unknown Precip  
Wind Chill: -5°   Ceiling: 600
Heat Index: -1°   Visibility: 2.5mi
Dew Point: -2°   Wind: 7mph
Humidity: 93%   Direction: 200°SSW
Pressure: 30.01"   Gusts: NA
Location:  47.8312°N, 94.1459°W
Report Text: KFOZ 201953Z AUTO 20006KT 2 1/2SM UP OVC006 M01/M02 A3001 RMK AO2
Loading
Personal Weather Stations






























Interactive Weather Map New forecast layout! Learn more

10-Day Weather Forecast

Advertisements
Track Severe Weather on mobile